createdAt,value
2018-05-21T00:01:44.478Z,101386.80
2018-05-21T00:04:15.178Z,101384.84
2018-05-21T00:06:48.309Z,101385.49
2018-05-21T00:09:19.419Z,101387.46
2018-05-21T00:11:51.186Z,101376.30
2018-05-21T00:14:38.959Z,101379.00
2018-05-21T00:17:09.895Z,101375.55
2018-05-21T00:19:42.260Z,101379.31
2018-05-21T00:22:19.810Z,101380.37
2018-05-21T00:24:50.886Z,101380.07
2018-05-21T00:27:38.358Z,101379.66
2018-05-21T00:30:19.822Z,101376.46
2018-05-21T00:32:53.191Z,101379.38
2018-05-21T00:35:25.105Z,101367.77
2018-05-21T00:37:55.450Z,101370.05
2018-05-21T00:40:26.659Z,101363.63
2018-05-21T00:42:58.441Z,101357.09
2018-05-21T00:45:29.782Z,101354.64
2018-05-21T00:48:19.005Z,101355.41
2018-05-21T00:50:49.890Z,101357.52
2018-05-21T00:53:22.168Z,101353.46
2018-05-21T00:55:58.004Z,101356.16
2018-05-21T00:58:31.934Z,101351.34
2018-05-21T01:01:11.765Z,101351.88
2018-05-21T01:03:42.290Z,101351.30
2018-05-21T01:06:17.125Z,101344.56
2018-05-21T01:08:51.266Z,101349.38
2018-05-21T01:11:22.066Z,101344.57
2018-05-21T01:13:54.150Z,101351.14
2018-05-21T01:16:25.512Z,101350.15
2018-05-21T01:18:59.233Z,101343.41
2018-05-21T01:21:30.633Z,101352.45
2018-05-21T01:24:01.596Z,101347.93
2018-05-21T01:26:33.204Z,101337.80
2018-05-21T01:29:03.882Z,101333.91
2018-05-21T01:31:41.113Z,101333.52
2018-05-21T01:34:11.664Z,101328.60
2018-05-21T01:36:42.118Z,101323.62
2018-05-21T01:39:13.779Z,101325.77
2018-05-21T01:41:44.458Z,101325.05
2018-05-21T01:44:14.922Z,101320.41
2018-05-21T01:46:45.569Z,101321.31
2018-05-21T01:49:15.906Z,101328.06
2018-05-21T01:51:46.731Z,101325.34
2018-05-21T01:54:17.162Z,101321.91
2018-05-21T01:56:48.275Z,101325.50
2018-05-21T01:59:18.859Z,101323.53
2018-05-21T02:01:50.057Z,101323.90
2018-05-21T02:04:20.782Z,101315.73
2018-05-21T02:06:51.678Z,101308.81
2018-05-21T02:09:22.150Z,101312.13
2018-05-21T02:11:52.964Z,101310.86
2018-05-21T02:14:26.216Z,101312.32
2018-05-21T02:16:57.714Z,101316.45
2018-05-21T02:19:28.325Z,101312.48
2018-05-21T02:22:00.324Z,101313.25
2018-05-21T02:24:30.871Z,101309.02
2018-05-21T02:27:03.047Z,101308.11
2018-05-21T02:29:34.921Z,101303.59
2018-05-21T02:32:06.139Z,101309.74
2018-05-21T02:34:38.005Z,101300.52
2018-05-21T02:37:11.483Z,101303.95
2018-05-21T02:39:43.128Z,101303.70
2018-05-21T02:42:13.881Z,101307.97
2018-05-21T02:44:44.706Z,101301.93
2018-05-21T02:47:17.542Z,101303.70
2018-05-21T02:49:48.235Z,101298.22
2018-05-21T02:52:18.590Z,101304.28
2018-05-21T02:54:49.424Z,101301.51
2018-05-21T02:57:19.764Z,101296.41
2018-05-21T02:59:50.466Z,101297.48
2018-05-21T03:02:23.358Z,101281.22
2018-05-21T03:04:55.162Z,101290.67
2018-05-21T03:07:28.214Z,101292.94
2018-05-21T03:10:05.595Z,101295.28
2018-05-21T03:12:42.177Z,101291.75
2018-05-21T03:15:18.821Z,101285.77
2018-05-21T03:17:51.726Z,101289.48
2018-05-21T03:20:25.425Z,101291.17
2018-05-21T03:25:40.844Z,101285.12
2018-05-21T03:28:11.485Z,101285.13
2018-05-21T03:30:42.276Z,101287.05
2018-05-21T03:33:12.682Z,101281.64
2018-05-21T03:35:50.875Z,101274.98
2018-05-21T03:38:21.606Z,101282.34
2018-05-21T03:40:52.851Z,101280.99
2018-05-21T03:43:24.003Z,101282.41
2018-05-21T03:45:55.476Z,101284.61
2018-05-21T03:48:26.477Z,101267.44
2018-05-21T03:50:57.743Z,101284.01
2018-05-21T03:53:45.575Z,101277.11
2018-05-21T03:56:16.004Z,101277.09
2018-05-21T04:01:04.613Z,101283.77
2018-05-21T04:03:45.095Z,101275.60
2018-05-21T04:06:18.485Z,101277.10
2018-05-21T04:08:51.813Z,101281.13
2018-05-21T04:11:23.143Z,101277.35
2018-05-21T04:13:57.984Z,101272.31
2018-05-21T04:16:32.738Z,101270.79
2018-05-21T04:19:03.933Z,101265.10
2018-05-21T04:21:35.449Z,101271.11
2018-05-21T04:24:33.679Z,101272.19
2018-05-21T04:27:19.479Z,101269.83
2018-05-21T04:29:53.911Z,101265.87
2018-05-21T04:32:25.389Z,101270.31
2018-05-21T04:34:56.750Z,101267.03
2018-05-21T04:37:27.414Z,101264.52
2018-05-21T04:39:58.469Z,101266.88
2018-05-21T04:42:29.039Z,101265.39
2018-05-21T04:44:59.670Z,101264.33
2018-05-21T04:47:31.448Z,101268.27
2018-05-21T04:50:02.197Z,101266.82
2018-05-21T04:52:33.093Z,101265.45
2018-05-21T04:55:04.170Z,101265.38
2018-05-21T04:57:55.262Z,101263.86
2018-05-21T05:00:39.641Z,101263.66
2018-05-21T05:03:22.328Z,101252.91
2018-05-21T05:05:58.903Z,101254.78
2018-05-21T05:08:33.110Z,101254.30
2018-05-21T05:11:04.142Z,101249.74
2018-05-21T05:13:34.945Z,101247.02
2018-05-21T05:16:11.287Z,101244.92
2018-05-21T05:18:42.039Z,101243.23
2018-05-21T05:21:12.369Z,101241.76
2018-05-21T05:23:43.443Z,101238.30
2018-05-21T05:26:16.671Z,101230.27
2018-05-21T05:28:49.821Z,101241.46
2018-05-21T05:31:28.993Z,101238.55
2018-05-21T05:33:59.497Z,101209.58
2018-05-21T05:36:32.169Z,101231.64
2018-05-21T05:39:09.608Z,101225.90
2018-05-21T05:41:41.190Z,101218.02
2018-05-21T05:44:13.541Z,101221.48
2018-05-21T05:46:45.630Z,101221.44
2018-05-21T05:49:18.699Z,101218.33
2018-05-21T05:51:50.626Z,101215.44
2018-05-21T05:54:27.656Z,101208.72
2018-05-21T05:56:59.485Z,101213.19
2018-05-21T05:59:29.772Z,101217.48
2018-05-21T06:02:00.441Z,101212.92
2018-05-21T06:04:36.645Z,101215.06
2018-05-21T06:07:09.037Z,101218.31
2018-05-21T06:09:39.945Z,101219.44
2018-05-21T06:12:10.134Z,101215.34
2018-05-21T06:14:52.869Z,101214.27
2018-05-21T06:17:25.043Z,101211.98
2018-05-21T06:19:57.068Z,101210.72
2018-05-21T06:22:30.305Z,101215.67
2018-05-21T06:25:01.901Z,101214.20
2018-05-21T06:27:32.466Z,101213.97
2018-05-21T06:32:59.524Z,101208.78
2018-05-21T06:35:31.863Z,101204.84
2018-05-21T06:38:12.513Z,101203.86
2018-05-21T06:40:44.525Z,101208.20
2018-05-21T06:43:17.336Z,101203.89
2018-05-21T06:45:47.951Z,101196.63
2018-05-21T06:48:24.074Z,101182.32
2018-05-21T06:50:57.084Z,101203.06
2018-05-21T06:53:27.747Z,101201.47
2018-05-21T06:55:58.338Z,101207.92
2018-05-21T06:58:29.060Z,101203.80
2018-05-21T07:01:00.009Z,101195.02
2018-05-21T07:03:31.010Z,101194.06
2018-05-21T07:06:01.578Z,101199.02
2018-05-21T07:08:31.979Z,101198.85
2018-05-21T07:11:02.806Z,101201.27
2018-05-21T07:13:39.411Z,101191.46
2018-05-21T07:16:10.413Z,101199.84
2018-05-21T07:18:41.275Z,101196.05
2018-05-21T07:21:13.216Z,101191.40
2018-05-21T07:23:44.956Z,101191.58
2018-05-21T07:26:15.569Z,101192.44
2018-05-21T07:28:47.827Z,101189.66
2018-05-21T07:31:19.234Z,101188.69
2018-05-21T07:33:51.541Z,101184.80
2018-05-21T07:36:24.558Z,101176.98
2018-05-21T07:38:55.537Z,101173.42
2018-05-21T07:41:28.335Z,101172.13
2018-05-21T07:43:58.836Z,101161.89
2018-05-21T07:46:29.431Z,101160.02
2018-05-21T07:49:04.963Z,101156.46
2018-05-21T07:51:36.685Z,101161.82
2018-05-21T07:54:12.719Z,101161.09
2018-05-21T07:56:43.179Z,101152.16
2018-05-21T07:59:22.389Z,101156.72
2018-05-21T08:02:02.734Z,101157.20
2018-05-21T08:04:34.154Z,101155.36
2018-05-21T08:07:08.349Z,101153.81
2018-05-21T08:09:40.696Z,101151.17
2018-05-21T08:12:22.861Z,101150.66
2018-05-21T08:14:55.492Z,101150.61
2018-05-21T08:17:38.592Z,101141.67
2018-05-21T08:20:10.671Z,101136.23
2018-05-21T08:22:41.467Z,101138.02
2018-05-21T08:25:17.036Z,101134.65
2018-05-21T08:27:49.426Z,101136.08
2018-05-21T08:30:22.106Z,101130.69
2018-05-21T08:32:54.159Z,101124.09
2018-05-21T08:35:35.989Z,101134.45
2018-05-21T08:38:08.729Z,101131.41
2018-05-21T08:43:45.947Z,101125.80
2018-05-21T08:46:17.518Z,101116.30
2018-05-21T08:48:48.414Z,101120.63
2018-05-21T08:51:19.816Z,101124.63
2018-05-21T08:53:51.451Z,101112.73
2018-05-21T08:56:30.419Z,101103.58
2018-05-21T08:59:01.751Z,101096.97
2018-05-21T09:01:38.202Z,101103.46
2018-05-21T09:04:10.160Z,101098.28
2018-05-21T09:06:46.731Z,101091.81
2018-05-21T09:09:19.892Z,101086.53
2018-05-21T09:11:52.452Z,101083.66
2018-05-21T09:14:33.241Z,101090.26
2018-05-21T09:17:04.125Z,101089.69
2018-05-21T09:19:34.946Z,101086.94
2018-05-21T09:22:05.665Z,101087.72
2018-05-21T09:24:36.702Z,101088.14
2018-05-21T09:27:08.377Z,101083.91
2018-05-21T09:29:39.929Z,101074.52
2018-05-21T09:32:13.139Z,101068.17
2018-05-21T09:34:45.981Z,101064.21
2018-05-21T09:37:17.098Z,101069.83
2018-05-21T09:39:48.448Z,101072.16
2018-05-21T09:42:27.718Z,101066.75
2018-05-21T09:45:04.937Z,101064.23
2018-05-21T09:47:35.951Z,101065.38
2018-05-21T09:50:07.090Z,101058.27
2018-05-21T09:52:41.382Z,101059.42
2018-05-21T09:55:15.131Z,101058.70
2018-05-21T09:57:48.022Z,101055.80
2018-05-21T10:00:36.758Z,101048.55
2018-05-21T10:03:16.107Z,101046.64
2018-05-21T10:05:49.844Z,101046.24
2018-05-21T10:08:23.874Z,101032.73
2018-05-21T10:10:55.682Z,101039.38
2018-05-21T10:13:26.308Z,101033.84
2018-05-21T10:15:57.849Z,101031.91
2018-05-21T10:18:33.500Z,101029.27
2018-05-21T10:21:04.435Z,100991.72
2018-05-21T10:23:35.922Z,101019.59
2018-05-21T10:26:06.532Z,101025.08
2018-05-21T10:28:36.948Z,101019.45
2018-05-21T10:31:08.627Z,101013.37
2018-05-21T10:33:43.876Z,101019.30
2018-05-21T10:36:16.365Z,101008.62
2018-05-21T10:38:47.355Z,101009.63
2018-05-21T10:41:21.377Z,100997.67
2018-05-21T10:43:54.561Z,101008.11
2018-05-21T10:46:28.259Z,101006.48
2018-05-21T10:48:58.869Z,100994.09
2018-05-21T10:51:30.819Z,100984.42
2018-05-21T10:54:02.851Z,100991.62
2018-05-21T10:56:35.038Z,100997.20
2018-05-21T10:59:11.875Z,100997.75
2018-05-21T11:01:45.819Z,100990.66
2018-05-21T11:04:17.387Z,100991.33
2018-05-21T11:06:48.497Z,100978.42
2018-05-21T11:09:29.365Z,100974.69
2018-05-21T11:12:04.257Z,100970.79
2018-05-21T11:14:38.673Z,100966.36
2018-05-21T11:17:09.931Z,100980.33
2018-05-21T11:19:40.706Z,100975.81
2018-05-21T11:22:11.218Z,100973.47
2018-05-21T11:24:41.799Z,100969.72
2018-05-21T11:27:12.794Z,100944.98
2018-05-21T11:29:43.965Z,100946.84
2018-05-21T11:32:15.040Z,100952.21
2018-05-21T11:34:47.324Z,100951.84
2018-05-21T11:37:19.532Z,100942.19
2018-05-21T11:39:58.311Z,100939.00
2018-05-21T11:42:29.900Z,100938.34
2018-05-21T11:45:05.136Z,100937.66
2018-05-21T11:47:37.192Z,100929.97
2018-05-21T11:50:08.595Z,100924.61
2018-05-21T11:52:54.778Z,100919.11
2018-05-21T11:55:26.130Z,100912.22
2018-05-21T11:57:56.672Z,100920.85
2018-05-21T12:00:28.384Z,100918.37
2018-05-21T12:02:59.435Z,100922.19
2018-05-21T12:05:29.909Z,100914.36
2018-05-21T12:08:01.260Z,100896.58
2018-05-21T12:10:32.423Z,100904.97
2018-05-21T12:13:02.930Z,100908.00
2018-05-21T12:15:36.889Z,100905.40
2018-05-21T12:18:08.978Z,100896.38
2018-05-21T12:20:42.239Z,100894.19
2018-05-21T12:23:18.606Z,100894.85
2018-05-21T12:25:58.181Z,100898.71
2018-05-21T12:28:31.460Z,100868.86
2018-05-21T12:31:05.624Z,100895.45
2018-05-21T12:33:36.998Z,100896.34
2018-05-21T12:36:08.267Z,100892.59
2018-05-21T12:38:49.207Z,100888.84
2018-05-21T12:41:20.122Z,100893.67
2018-05-21T12:43:50.434Z,100881.52
2018-05-21T12:46:23.385Z,100877.02
2018-05-21T12:48:54.838Z,100877.17
2018-05-21T12:51:25.536Z,100875.44
2018-05-21T12:53:56.502Z,100881.14
2018-05-21T12:56:31.242Z,100874.06
2018-05-21T12:59:01.876Z,100879.90
2018-05-21T13:01:35.543Z,100871.28
2018-05-21T13:04:06.311Z,100870.22
2018-05-21T13:06:39.450Z,100871.61
2018-05-21T13:09:22.325Z,100870.50
2018-05-21T13:11:53.604Z,100872.17
2018-05-21T13:14:43.964Z,100874.34
2018-05-21T13:17:16.522Z,100870.59
2018-05-21T13:19:59.714Z,100865.38
2018-05-21T13:22:33.751Z,100867.49
2018-05-21T13:25:04.657Z,100855.91
2018-05-21T13:27:49.243Z,100851.95
2018-05-21T13:30:19.999Z,100835.88
2018-05-21T13:32:50.616Z,100848.98
2018-05-21T13:35:21.865Z,100845.80
2018-05-21T13:37:52.713Z,100841.35
2018-05-21T13:40:27.214Z,100846.20
2018-05-21T13:42:58.129Z,100837.31
2018-05-21T13:45:29.891Z,100837.13
2018-05-21T13:48:02.588Z,100834.06
2018-05-21T13:50:33.558Z,100836.61
2018-05-21T13:53:04.069Z,100831.48
2018-05-21T13:55:34.485Z,100832.92
2018-05-21T13:58:05.496Z,100829.42
2018-05-21T14:00:38.484Z,100827.11
2018-05-21T14:03:10.377Z,100823.95
2018-05-21T14:05:41.647Z,100813.20
2018-05-21T14:08:13.043Z,100825.50
2018-05-21T14:10:43.779Z,100812.05
2018-05-21T14:13:14.196Z,100809.48
2018-05-21T14:15:46.191Z,100806.83
2018-05-21T14:18:18.264Z,100807.27
2018-05-21T14:20:51.133Z,100807.67
2018-05-21T14:23:22.132Z,100805.88
2018-05-21T14:25:54.385Z,100803.48
2018-05-21T14:28:29.010Z,100791.59
2018-05-21T14:31:07.320Z,100799.67
2018-05-21T14:34:01.774Z,100793.12
2018-05-21T14:36:33.893Z,100795.41
2018-05-21T14:39:05.457Z,100783.80
2018-05-21T14:41:36.675Z,100784.06
2018-05-21T14:44:11.061Z,100780.11
2018-05-21T14:46:44.967Z,100770.48
2018-05-21T14:49:18.984Z,100776.34
2018-05-21T14:51:55.343Z,100778.16
2018-05-21T14:54:26.069Z,100769.45
2018-05-21T14:56:57.384Z,100772.82
2018-05-21T14:59:32.685Z,100770.14
2018-05-21T15:02:04.623Z,100774.38
2018-05-21T15:04:35.243Z,100764.71
2018-05-21T15:07:11.248Z,100765.72
2018-05-21T15:09:44.126Z,100759.89
2018-05-21T15:12:15.722Z,100756.19
2018-05-21T15:14:47.283Z,100759.55
2018-05-21T15:17:20.664Z,100758.86
2018-05-21T15:19:51.419Z,100733.58
2018-05-21T15:22:22.642Z,100756.31
2018-05-21T15:24:53.753Z,100752.37
2018-05-21T15:27:26.845Z,100753.09
2018-05-21T15:29:59.028Z,100743.88
2018-05-21T15:32:30.847Z,100737.02
2018-05-21T15:35:02.591Z,100737.10
2018-05-21T15:37:37.200Z,100735.66
2018-05-21T15:40:10.463Z,100744.88
2018-05-21T15:42:43.705Z,100735.66
2018-05-21T15:45:24.028Z,100737.36
2018-05-21T15:47:55.781Z,100731.05
2018-05-21T15:50:26.812Z,100732.20
2018-05-21T15:52:58.249Z,100728.83
2018-05-21T15:55:29.658Z,100725.47
2018-05-21T15:58:02.509Z,100716.87
2018-05-21T16:00:35.736Z,100728.14
2018-05-21T16:03:10.554Z,100710.38
2018-05-21T16:05:42.807Z,100718.08
2018-05-21T16:08:15.435Z,100718.89
2018-05-21T16:10:57.545Z,100719.77
2018-05-21T16:13:28.623Z,100722.72
2018-05-21T16:15:59.468Z,100713.90
2018-05-21T16:18:32.566Z,100706.41
2018-05-21T16:21:04.228Z,100716.51
2018-05-21T16:23:53.796Z,100707.54
2018-05-21T16:26:29.704Z,100695.27
2018-05-21T16:29:05.325Z,100706.55
2018-05-21T16:31:50.044Z,100700.35
2018-05-21T16:34:26.637Z,100705.42
2018-05-21T16:37:00.367Z,100697.13
2018-05-21T16:39:32.207Z,100697.45
2018-05-21T16:42:07.373Z,100706.33
2018-05-21T16:44:52.008Z,100700.82
2018-05-21T16:47:22.889Z,100698.80
2018-05-21T16:49:55.501Z,100689.53
2018-05-21T16:52:34.478Z,100702.61
2018-05-21T16:55:09.639Z,100700.27
2018-05-21T16:57:40.481Z,100698.91
2018-05-21T17:00:16.664Z,100694.37
2018-05-21T17:02:48.942Z,100697.89
2018-05-21T17:05:21.714Z,100689.84
2018-05-21T17:07:54.166Z,100688.01
2018-05-21T17:10:30.632Z,100688.01
2018-05-21T17:13:02.026Z,100693.34
2018-05-21T17:15:35.471Z,100690.99
2018-05-21T17:18:06.416Z,100679.45
2018-05-21T17:20:39.752Z,100684.36
2018-05-21T17:23:13.575Z,100683.29
2018-05-21T17:25:46.764Z,100680.00
2018-05-21T17:28:19.924Z,100681.63
2018-05-21T17:30:50.906Z,100683.63
2018-05-21T17:36:44.724Z,100681.80
2018-05-21T17:39:17.362Z,100681.84
2018-05-21T17:41:49.826Z,100674.28
2018-05-21T17:44:21.096Z,100679.52
2018-05-21T17:47:12.761Z,100674.19
2018-05-21T17:49:52.643Z,100673.19
2018-05-21T17:52:32.394Z,100674.73
2018-05-21T17:55:21.213Z,100677.66
2018-05-21T17:58:03.712Z,100679.72
2018-05-21T18:00:36.740Z,100681.23
2018-05-21T18:03:09.205Z,100679.30
2018-05-21T18:05:40.182Z,100682.35
2018-05-21T18:08:16.103Z,100676.70
2018-05-21T18:10:51.461Z,100677.66
2018-05-21T18:13:25.144Z,100679.16
2018-05-21T18:15:57.026Z,100682.55
2018-05-21T18:18:34.634Z,100678.34
2018-05-21T18:21:07.129Z,100680.23
2018-05-21T18:23:49.262Z,100674.67
2018-05-21T18:26:20.778Z,100675.75
2018-05-21T18:28:52.640Z,100672.77
2018-05-21T18:31:32.870Z,100671.52
2018-05-21T18:34:04.605Z,100674.77
2018-05-21T18:36:40.465Z,100672.09
2018-05-21T18:39:14.113Z,100672.72
2018-05-21T18:41:49.912Z,100669.78
2018-05-21T18:44:25.595Z,100680.52
2018-05-21T18:47:05.175Z,100682.39
2018-05-21T18:49:41.985Z,100678.41
2018-05-21T18:52:15.365Z,100679.67
2018-05-21T18:54:56.217Z,100664.47
2018-05-21T18:57:31.436Z,100672.30
2018-05-21T19:02:48.524Z,100671.67
2018-05-21T19:05:20.104Z,100671.62
2018-05-21T19:07:52.071Z,100676.47
2018-05-21T19:10:24.505Z,100674.72
2018-05-21T19:12:55.636Z,100679.00
2018-05-21T19:15:45.344Z,100674.30
2018-05-21T19:18:22.458Z,100675.48
2018-05-21T19:20:55.610Z,100678.75
2018-05-21T19:23:31.612Z,100682.71
2018-05-21T19:26:03.314Z,100684.45
2018-05-21T19:28:33.708Z,100686.77
2018-05-21T19:33:56.989Z,100693.38
2018-05-21T19:36:27.321Z,100693.82
2018-05-21T19:39:00.721Z,100690.33
2018-05-21T19:41:33.130Z,100694.22
2018-05-21T19:44:04.711Z,100695.38
2018-05-21T19:46:37.596Z,100689.30
2018-05-21T19:49:13.987Z,100697.74
2018-05-21T19:52:04.146Z,100695.75
2018-05-21T19:54:41.362Z,100699.94
2018-05-21T19:57:18.248Z,100699.83
2018-05-21T19:59:54.760Z,100705.69
2018-05-21T20:02:33.140Z,100703.94
2018-05-21T20:05:04.569Z,100708.98
2018-05-21T20:07:44.008Z,100708.69
2018-05-21T20:10:22.192Z,100710.43
2018-05-21T20:13:10.243Z,100711.43
2018-05-21T20:15:45.506Z,100712.49
2018-05-21T20:18:20.568Z,100717.48
2018-05-21T20:21:16.221Z,100726.36
2018-05-21T20:23:54.473Z,100729.63
2018-05-21T20:26:32.095Z,100739.27
2018-05-21T20:29:09.133Z,100748.07
2018-05-21T20:31:40.465Z,100740.00
2018-05-21T20:34:11.061Z,100738.21
2018-05-21T20:36:41.859Z,100741.03
2018-05-21T20:39:12.305Z,100729.25
2018-05-21T20:41:43.000Z,100736.49
2018-05-21T20:44:13.701Z,100735.23
2018-05-21T20:46:54.904Z,100728.48
2018-05-21T20:49:26.341Z,100724.93
2018-05-21T20:51:57.973Z,100727.81
2018-05-21T20:54:28.243Z,100722.29
2018-05-21T20:56:58.944Z,100719.06
2018-05-21T20:59:31.324Z,100724.55
2018-05-21T21:02:04.385Z,100720.73
2018-05-21T21:04:35.363Z,100719.59
2018-05-21T21:07:09.463Z,100732.83
2018-05-21T21:09:40.874Z,100721.39
2018-05-21T21:12:11.323Z,100730.11
2018-05-21T21:14:42.133Z,100726.14
2018-05-21T21:17:12.671Z,100730.59
2018-05-21T21:19:43.714Z,100730.95
2018-05-21T21:22:15.632Z,100727.95
2018-05-21T21:24:47.259Z,100735.93
2018-05-21T21:27:18.074Z,100741.20
2018-05-21T21:29:50.964Z,100747.64
2018-05-21T21:32:22.012Z,100742.98
2018-05-21T21:34:52.825Z,100742.64
2018-05-21T21:37:23.309Z,100742.33
2018-05-21T21:39:59.126Z,100749.89
2018-05-21T21:42:29.837Z,100742.41
2018-05-21T21:45:00.213Z,100745.03
2018-05-21T21:47:33.050Z,100743.74
2018-05-21T21:50:06.613Z,100734.92
2018-05-21T21:52:37.367Z,100734.60
2018-05-21T21:55:08.008Z,100739.09
2018-05-21T21:57:43.133Z,100724.72
2018-05-21T22:00:17.861Z,100725.54
2018-05-21T22:02:48.422Z,100723.05
2018-05-21T22:05:19.271Z,100726.94
2018-05-21T22:07:49.954Z,100723.50
2018-05-21T22:10:20.434Z,100735.70
2018-05-21T22:12:51.603Z,100726.70
2018-05-21T22:15:22.965Z,100729.22
2018-05-21T22:17:54.243Z,100729.81
2018-05-21T22:20:25.040Z,100734.00
2018-05-21T22:22:58.040Z,100731.09
2018-05-21T22:25:29.922Z,100735.89
2018-05-21T22:28:03.565Z,100745.59
2018-05-21T22:30:36.000Z,100738.19
2018-05-21T22:33:07.707Z,100746.12
2018-05-21T22:35:39.544Z,100745.38
2018-05-21T22:38:10.273Z,100748.41
2018-05-21T22:40:41.869Z,100748.72
2018-05-21T22:43:12.757Z,100750.58
2018-05-21T22:45:43.918Z,100751.77
2018-05-21T22:48:14.874Z,100747.39
2018-05-21T22:50:45.257Z,100747.55
2018-05-21T22:53:15.981Z,100749.98
2018-05-21T22:55:47.047Z,100745.58
2018-05-21T22:58:17.633Z,100743.16
2018-05-21T23:00:48.712Z,100739.95
2018-05-21T23:03:19.480Z,100738.40
2018-05-21T23:05:51.000Z,100734.92
2018-05-21T23:08:21.726Z,100731.84
2018-05-21T23:10:52.932Z,100728.52
2018-05-21T23:13:23.632Z,100723.59
2018-05-21T23:15:54.680Z,100729.42
2018-05-21T23:18:24.993Z,100729.93
2018-05-21T23:20:55.574Z,100733.45
2018-05-21T23:23:26.409Z,100724.94
2018-05-21T23:26:00.643Z,100726.83
2018-05-21T23:28:34.065Z,100735.97
2018-05-21T23:31:06.293Z,100733.45
2018-05-21T23:33:38.043Z,100735.36
2018-05-21T23:36:10.408Z,100736.71
2018-05-21T23:38:40.986Z,100731.23
2018-05-21T23:41:12.256Z,100728.36
2018-05-21T23:43:43.077Z,100735.36
2018-05-21T23:46:14.762Z,100742.05
2018-05-21T23:48:45.142Z,100739.14
2018-05-21T23:51:16.752Z,100741.53
2018-05-21T23:53:47.216Z,100737.14
2018-05-21T23:56:18.846Z,100733.81
2018-05-21T23:58:49.662Z,100733.98
